Houwa Maru — JL6394 — position and weather

sailwx.info

Track history (hours):
 
Tides and Currents Weather Stations Pressure Air Temp Water Temp Dewpoint Dewpoint Depression Visibility Wind Speed Wind Dir Waves Ship Positions

Houwa Maru

Last reported at 2017-Feb-17 21:13 UTC. Time now 2017-Feb-22 22:21 UTC.
Position N 34°59' E 139°43'.

Length 76 m.

Type: Ship. MMSI: 431500378.

Date/timePositionNaut miles runAvg speedWind from/ knotsBaromVisibWave heightAir tempDewpointWater temp
2017-Feb-17 21:13N 34°59' E 139°43'710.6
2017-Feb-17 20:33N 35°06' E 139°45'1010.1
2017-Feb-17 19:31N 35°17' E 139°45'9 9.3
2017-Feb-17 18:33N 35°26' E 139°45'7 0.3
2017-Feb-16 18:32N 35°29' E 139°52'1211.3
2017-Feb-16 17:30N 35°19' E 139°44'1010.6
2017-Feb-16 16:33N 35°09' E 139°46'1211.4
2017-Feb-16 15:31N 35°01' E 139°37'224 5.3
2017-Feb-14 21:09N 34°35' E 135°05'233 7.1
2017-Feb-13 12:26N 35°24' E 139°43'10 0.5
2017-Feb-12 14:31N 35°30' E 139°53'1110.2
2017-Feb-12 13:29N 35°22' E 139°45'  
Track history (hours):
 
Tides and Currents Weather Stations Pressure Air Temp Water Temp Dewpoint Dewpoint Depression Visibility Wind Speed Wind Dir Waves Ship Positions

Houwa Maru

Last reported at 2017-Feb-17 21:13 UTC. Time now 2017-Feb-22 22:21 UTC.
Position N 34°59' E 139°43'.

Length 76 m.

Type: Ship. MMSI: 431500378.

Date/timePositionNaut miles runAvg speedWind from/ knotsBaromVisibWave heightAir tempDewpointWater temp
2017-Feb-17 21:13N 34°59' E 139°43'710.6
2017-Feb-17 20:33N 35°06' E 139°45'1010.1
2017-Feb-17 19:31N 35°17' E 139°45'9 9.3
2017-Feb-17 18:33N 35°26' E 139°45'7 0.3
2017-Feb-16 18:32N 35°29' E 139°52'1211.3
2017-Feb-16 17:30N 35°19' E 139°44'1010.6
2017-Feb-16 16:33N 35°09' E 139°46'1211.4
2017-Feb-16 15:31N 35°01' E 139°37'224 5.3
2017-Feb-14 21:09N 34°35' E 135°05'233 7.1
2017-Feb-13 12:26N 35°24' E 139°43'10 0.5
2017-Feb-12 14:31N 35°30' E 139°53'1110.2
2017-Feb-12 13:29N 35°22' E 139°45'  

Dump ship's entire track history